createdAt,value
2022-09-09T00:01:07.848Z,15.20
2022-09-09T00:03:18.037Z,15.20
2022-09-09T00:05:56.727Z,15.30
2022-09-09T00:08:04.843Z,15.40
2022-09-09T00:10:33.450Z,15.40
2022-09-09T00:12:44.608Z,15.40
2022-09-09T00:15:06.948Z,15.30
2022-09-09T00:17:27.085Z,15.30
2022-09-09T00:19:51.405Z,15.30
2022-09-09T00:22:24.361Z,15.30
2022-09-09T00:24:33.106Z,15.30
2022-09-09T00:26:49.621Z,15.30
2022-09-09T00:29:08.435Z,15.40
2022-09-09T00:31:17.299Z,15.40
2022-09-09T00:33:23.367Z,15.50
2022-09-09T00:35:35.641Z,15.50
2022-09-09T00:37:41.134Z,15.40
2022-09-09T00:39:48.820Z,15.30
2022-09-09T00:42:15.094Z,15.30
2022-09-09T00:44:36.193Z,15.30
2022-09-09T00:47:10.948Z,15.20
2022-09-09T00:49:31.666Z,15.20
2022-09-09T00:51:59.546Z,15.20
2022-09-09T00:54:04.206Z,15.30
2022-09-09T00:56:24.471Z,15.40
2022-09-09T00:58:26.193Z,15.50
2022-09-09T01:00:34.367Z,15.50
2022-09-09T01:03:00.130Z,15.60
2022-09-09T01:05:21.470Z,15.60
2022-09-09T01:07:23.623Z,15.70
2022-09-09T01:09:52.338Z,15.70
2022-09-09T01:12:11.132Z,15.70
2022-09-09T01:14:21.338Z,15.60
2022-09-09T01:16:23.369Z,15.60
2022-09-09T01:18:29.359Z,15.60
2022-09-09T01:20:56.452Z,15.60
2022-09-09T01:23:20.467Z,15.50
2022-09-09T01:25:59.394Z,15.50
2022-09-09T01:28:09.177Z,15.60
2022-09-09T01:30:17.027Z,15.60
2022-09-09T01:32:45.622Z,15.50
2022-09-09T01:34:47.358Z,15.50
2022-09-09T01:37:02.985Z,15.40
2022-09-09T01:39:04.927Z,15.30
2022-09-09T01:41:06.687Z,15.30
2022-09-09T01:43:08.474Z,15.30
2022-09-09T01:45:10.669Z,15.30
2022-09-09T01:47:12.389Z,15.30
2022-09-09T01:49:14.174Z,15.40
2022-09-09T01:51:15.870Z,15.50
2022-09-09T01:53:19.767Z,15.60
2022-09-09T01:55:30.873Z,15.60
2022-09-09T01:57:40.466Z,15.60
2022-09-09T02:00:09.023Z,15.70
2022-09-09T02:02:35.507Z,15.70
2022-09-09T02:04:42.913Z,15.60
2022-09-09T02:06:46.799Z,15.60
2022-09-09T02:08:50.993Z,15.50
2022-09-09T02:10:59.885Z,15.40
2022-09-09T02:13:17.063Z,15.30
2022-09-09T02:15:33.520Z,15.30
2022-09-09T02:17:39.586Z,15.30
2022-09-09T02:19:49.875Z,15.20
2022-09-09T02:21:53.060Z,15.20
2022-09-09T02:23:57.027Z,15.10
2022-09-09T02:26:00.023Z,15.00
2022-09-09T02:28:04.510Z,14.90
2022-09-09T02:30:06.825Z,14.90
2022-09-09T02:32:23.259Z,14.80
2022-09-09T02:34:25.951Z,14.80
2022-09-09T02:36:32.028Z,14.70
2022-09-09T02:38:38.539Z,14.60
2022-09-09T02:40:40.522Z,14.50
2022-09-09T02:42:44.456Z,14.40
2022-09-09T02:44:46.395Z,14.30
2022-09-09T02:46:59.923Z,14.20
2022-09-09T02:49:19.443Z,14.20
2022-09-09T02:51:40.003Z,14.20
2022-09-09T02:54:05.783Z,14.10
2022-09-09T02:56:16.156Z,14.20
2022-09-09T02:58:19.898Z,14.30
2022-09-09T03:00:27.127Z,14.40
2022-09-09T03:02:30.029Z,14.40
2022-09-09T03:04:32.111Z,14.30
2022-09-09T03:06:33.749Z,14.20
2022-09-09T03:08:35.478Z,14.10
2022-09-09T03:10:38.015Z,14.00
2022-09-09T03:12:39.953Z,13.90
2022-09-09T03:14:41.705Z,13.80
2022-09-09T03:16:44.233Z,13.70
2022-09-09T03:18:46.873Z,13.60
2022-09-09T03:20:52.130Z,13.50
2022-09-09T03:22:54.460Z,13.50
2022-09-09T03:24:56.154Z,13.40
2022-09-09T03:26:58.397Z,13.40
2022-09-09T03:29:01.523Z,13.40
2022-09-09T03:31:05.886Z,13.50
2022-09-09T03:33:07.647Z,13.50
2022-09-09T03:35:09.785Z,13.50
2022-09-09T03:37:11.637Z,13.60
2022-09-09T03:39:13.462Z,13.70
2022-09-09T03:41:15.341Z,13.80
2022-09-09T03:43:17.597Z,13.90
2022-09-09T03:45:19.213Z,13.90
2022-09-09T03:47:22.666Z,14.00
2022-09-09T03:49:25.264Z,14.00
2022-09-09T03:51:26.886Z,14.10
2022-09-09T03:53:29.249Z,14.20
2022-09-09T03:55:30.892Z,14.30
2022-09-09T03:57:35.914Z,14.30
2022-09-09T03:59:37.910Z,14.40
2022-09-09T04:01:40.999Z,14.40
2022-09-09T04:03:43.274Z,14.50
2022-09-09T04:05:44.926Z,14.50
2022-09-09T04:07:46.614Z,14.50
2022-09-09T04:09:48.433Z,14.50
2022-09-09T04:11:50.464Z,14.50
2022-09-09T04:13:52.102Z,14.50
2022-09-09T04:15:59.496Z,14.50
2022-09-09T04:18:02.654Z,14.40
2022-09-09T04:20:04.576Z,14.50
2022-09-09T04:22:06.353Z,14.40
2022-09-09T04:24:10.787Z,14.40
2022-09-09T04:26:12.436Z,14.40
2022-09-09T04:28:15.398Z,14.40
2022-09-09T04:30:17.476Z,14.50
2022-09-09T04:32:19.096Z,14.40
2022-09-09T04:34:20.968Z,14.40
2022-09-09T04:36:23.246Z,14.30
2022-09-09T04:38:25.000Z,14.30
2022-09-09T04:40:26.587Z,14.20
2022-09-09T04:42:28.739Z,14.10
2022-09-09T04:44:31.268Z,14.00
2022-09-09T04:46:34.189Z,13.90
2022-09-09T04:48:36.195Z,13.80
2022-09-09T04:50:37.915Z,13.80
2022-09-09T04:52:39.514Z,13.70
2022-09-09T04:54:41.465Z,13.70
2022-09-09T04:56:44.243Z,13.70
2022-09-09T04:58:46.546Z,13.70
2022-09-09T05:00:48.390Z,13.80
2022-09-09T05:02:50.118Z,13.70
2022-09-09T05:04:51.827Z,13.70
2022-09-09T05:06:53.580Z,13.70
2022-09-09T05:08:55.250Z,13.80
2022-09-09T05:10:57.058Z,13.90
2022-09-09T05:12:58.712Z,13.90
2022-09-09T05:15:00.367Z,13.90
2022-09-09T05:17:02.002Z,14.00
2022-09-09T05:19:04.267Z,14.00
2022-09-09T05:21:07.117Z,14.00
2022-09-09T05:23:10.718Z,14.00
2022-09-09T05:25:12.344Z,14.00
2022-09-09T05:27:14.061Z,14.10
2022-09-09T05:29:15.873Z,14.10
2022-09-09T05:31:19.403Z,14.10
2022-09-09T05:33:22.025Z,14.10
2022-09-09T05:35:24.090Z,14.20
2022-09-09T05:37:26.342Z,14.20
2022-09-09T05:39:28.010Z,14.30
2022-09-09T05:41:30.400Z,14.40
2022-09-09T05:43:33.325Z,14.40
2022-09-09T05:45:34.940Z,14.50
2022-09-09T05:47:38.392Z,14.60
2022-09-09T05:49:40.240Z,14.70
2022-09-09T05:51:43.714Z,14.70
2022-09-09T05:53:46.637Z,14.80
2022-09-09T05:55:49.121Z,14.80
2022-09-09T05:57:53.043Z,14.90
2022-09-09T05:59:54.891Z,14.90
2022-09-09T06:01:57.209Z,14.80
2022-09-09T06:03:59.130Z,14.80
2022-09-09T06:06:15.166Z,14.80
2022-09-09T06:08:17.571Z,14.70
2022-09-09T06:10:19.917Z,14.80
2022-09-09T06:12:21.959Z,14.80
2022-09-09T06:14:23.722Z,14.90
2022-09-09T06:16:28.542Z,14.90
2022-09-09T06:18:30.594Z,14.90
2022-09-09T06:20:32.984Z,15.00
2022-09-09T06:22:34.573Z,15.00
2022-09-09T06:24:36.260Z,15.00
2022-09-09T06:26:42.871Z,15.10
2022-09-09T06:28:46.517Z,15.10
2022-09-09T06:30:48.194Z,15.10
2022-09-09T06:32:50.953Z,15.20
2022-09-09T06:34:52.699Z,15.30
2022-09-09T06:36:54.333Z,15.40
2022-09-09T06:38:56.328Z,15.50
2022-09-09T06:41:00.101Z,15.50
2022-09-09T06:43:02.124Z,15.60
2022-09-09T06:45:04.047Z,15.70
2022-09-09T06:47:06.456Z,15.70
2022-09-09T06:49:09.924Z,15.90
2022-09-09T06:51:17.513Z,16.10
2022-09-09T06:53:20.069Z,16.40
2022-09-09T06:55:21.754Z,17.00
2022-09-09T06:57:38.795Z,18.00
2022-09-09T06:59:40.465Z,18.30
2022-09-09T07:01:50.266Z,18.30
2022-09-09T07:03:56.317Z,18.10
2022-09-09T07:05:58.511Z,17.80
2022-09-09T07:08:00.485Z,17.70
2022-09-09T07:10:02.194Z,17.70
2022-09-09T07:12:05.242Z,17.80
2022-09-09T07:14:06.870Z,17.70
2022-09-09T07:16:13.910Z,17.90
2022-09-09T07:18:15.651Z,18.00
2022-09-09T07:20:17.389Z,18.20
2022-09-09T07:22:21.083Z,18.40
2022-09-09T07:24:22.770Z,18.60
2022-09-09T07:26:26.933Z,18.60
2022-09-09T07:28:29.915Z,18.60
2022-09-09T07:30:31.937Z,18.60
2022-09-09T07:32:33.684Z,18.70
2022-09-09T07:34:35.380Z,18.80
2022-09-09T07:36:40.065Z,18.70
2022-09-09T07:38:46.957Z,18.80
2022-09-09T07:40:48.622Z,18.90
2022-09-09T07:42:50.430Z,19.00
2022-09-09T07:44:55.756Z,19.00
2022-09-09T07:46:57.513Z,18.80
2022-09-09T07:48:59.598Z,18.80
2022-09-09T07:51:07.282Z,19.00
2022-09-09T07:53:09.046Z,19.30
2022-09-09T07:55:11.199Z,20.00
2022-09-09T07:57:13.618Z,21.00
2022-09-09T07:59:15.346Z,21.30
2022-09-09T08:01:20.211Z,20.70
2022-09-09T08:03:23.072Z,20.40
2022-09-09T08:05:24.772Z,21.00
2022-09-09T08:07:27.098Z,22.00
2022-09-09T08:09:33.469Z,22.70
2022-09-09T08:11:39.233Z,22.80
2022-09-09T08:13:43.362Z,22.50
2022-09-09T08:15:45.522Z,21.80
2022-09-09T08:17:47.297Z,21.90
2022-09-09T08:19:49.010Z,22.80
2022-09-09T08:21:50.676Z,23.90
2022-09-09T08:23:57.833Z,24.60
2022-09-09T08:26:22.419Z,25.00
2022-09-09T08:28:24.045Z,25.60
2022-09-09T08:30:25.717Z,26.20
2022-09-09T08:32:27.475Z,26.80
2022-09-09T08:34:29.938Z,26.80
2022-09-09T08:36:34.653Z,26.70
2022-09-09T08:38:36.725Z,26.40
2022-09-09T08:40:45.150Z,26.10
2022-09-09T08:42:50.500Z,25.00
2022-09-09T08:45:29.223Z,25.10
2022-09-09T08:47:50.409Z,25.60
2022-09-09T08:49:55.171Z,26.30
2022-09-09T08:51:58.366Z,26.80
2022-09-09T08:54:03.020Z,26.80
2022-09-09T08:56:12.550Z,26.60
2022-09-09T08:58:20.190Z,26.60
2022-09-09T09:00:22.209Z,27.10
2022-09-09T09:02:54.640Z,26.60
2022-09-09T09:05:22.864Z,25.10
2022-09-09T09:07:24.450Z,23.90
2022-09-09T09:09:42.144Z,23.70
2022-09-09T09:12:01.784Z,23.60
2022-09-09T09:14:24.870Z,23.10
2022-09-09T09:16:51.051Z,22.90
2022-09-09T09:18:53.665Z,23.50
2022-09-09T09:21:04.961Z,24.80
2022-09-09T09:23:07.509Z,25.10
2022-09-09T09:25:09.348Z,25.00
2022-09-09T09:27:16.974Z,25.30
2022-09-09T09:29:20.927Z,25.40
2022-09-09T09:31:24.354Z,25.70
2022-09-09T09:33:33.907Z,26.40
2022-09-09T09:35:40.517Z,26.20
2022-09-09T09:40:18.301Z,26.20
2022-09-09T09:42:23.843Z,26.20
2022-09-09T09:44:33.417Z,25.50
2022-09-09T09:46:35.205Z,24.20
2022-09-09T09:48:37.031Z,23.00
2022-09-09T09:51:01.511Z,21.70
2022-09-09T09:53:20.355Z,20.20
2022-09-09T09:55:23.665Z,19.20
2022-09-09T09:57:31.654Z,18.40
2022-09-09T09:59:41.017Z,17.80
2022-09-09T10:01:43.594Z,17.50
2022-09-09T10:03:53.362Z,18.10
2022-09-09T10:05:57.177Z,19.30
2022-09-09T10:08:25.786Z,20.50
2022-09-09T10:10:56.158Z,21.70
2022-09-09T10:13:16.462Z,22.30
2022-09-09T10:15:40.052Z,23.30
2022-09-09T10:18:19.131Z,23.90
2022-09-09T10:20:23.819Z,24.70
2022-09-09T10:22:32.446Z,25.20
2022-09-09T10:24:42.586Z,25.80
2022-09-09T10:27:01.111Z,26.20
2022-09-09T10:29:32.053Z,26.70
2022-09-09T10:31:41.793Z,26.80
2022-09-09T10:34:29.779Z,26.60
2022-09-09T10:36:33.302Z,26.00
2022-09-09T10:39:00.707Z,25.90
2022-09-09T10:41:18.510Z,26.20
2022-09-09T10:43:44.391Z,26.20
2022-09-09T10:46:09.942Z,26.20
2022-09-09T10:48:49.212Z,26.20
2022-09-09T10:51:03.917Z,25.90
2022-09-09T10:53:26.932Z,25.30
2022-09-09T10:55:44.754Z,25.40
2022-09-09T10:57:49.837Z,26.20
2022-09-09T10:59:55.926Z,26.80
2022-09-09T11:02:28.859Z,26.50
2022-09-09T11:04:36.304Z,26.30
2022-09-09T11:06:45.323Z,26.70
2022-09-09T11:08:50.778Z,27.00
2022-09-09T11:11:04.756Z,26.90
2022-09-09T11:13:23.065Z,26.70
2022-09-09T11:15:35.198Z,26.50
2022-09-09T11:17:50.378Z,25.80
2022-09-09T11:19:52.750Z,25.00
2022-09-09T11:21:56.377Z,24.30
2022-09-09T11:24:02.631Z,23.30
2022-09-09T11:26:05.986Z,22.70
2022-09-09T11:28:25.120Z,22.20
2022-09-09T11:30:55.614Z,22.00
2022-09-09T11:33:20.622Z,21.90
2022-09-09T11:35:41.289Z,22.20
2022-09-09T11:38:07.687Z,22.60
2022-09-09T11:40:29.043Z,22.90
2022-09-09T11:42:30.993Z,22.80
2022-09-09T11:44:32.903Z,22.70
2022-09-09T11:46:39.197Z,22.40
2022-09-09T11:48:49.366Z,21.70
2022-09-09T11:51:03.904Z,20.90
2022-09-09T11:53:21.874Z,20.10
2022-09-09T11:55:32.067Z,19.50
2022-09-09T11:57:37.034Z,18.60
2022-09-09T11:59:38.711Z,18.10
2022-09-09T12:01:43.941Z,17.50
2022-09-09T12:03:49.879Z,16.70
2022-09-09T12:05:52.386Z,16.00
2022-09-09T12:07:59.240Z,15.60
2022-09-09T12:10:21.612Z,15.60
2022-09-09T12:12:30.866Z,15.60
2022-09-09T12:14:42.879Z,16.30
2022-09-09T12:16:44.564Z,16.90
2022-09-09T12:18:46.806Z,17.40
2022-09-09T12:21:27.226Z,17.70
2022-09-09T12:23:37.065Z,18.10
2022-09-09T12:25:53.167Z,18.40
2022-09-09T12:28:18.738Z,18.90
2022-09-09T12:30:22.565Z,19.30
2022-09-09T12:32:29.920Z,20.10
2022-09-09T12:35:13.235Z,21.00
2022-09-09T12:37:22.710Z,21.70
2022-09-09T12:39:33.251Z,22.30
2022-09-09T12:41:34.943Z,22.20
2022-09-09T12:43:37.493Z,22.00
2022-09-09T12:45:42.300Z,21.80
2022-09-09T12:48:01.518Z,22.10
2022-09-09T12:50:03.749Z,21.70
2022-09-09T12:52:10.837Z,21.40
2022-09-09T12:54:16.347Z,21.40
2022-09-09T12:56:24.408Z,21.60
2022-09-09T12:58:29.200Z,21.50
2022-09-09T13:00:32.185Z,21.10
2022-09-09T13:02:34.094Z,20.70
2022-09-09T13:04:35.837Z,20.20
2022-09-09T13:06:37.486Z,19.90
2022-09-09T13:08:39.885Z,19.80
2022-09-09T13:10:55.462Z,19.70
2022-09-09T13:12:59.370Z,19.50
2022-09-09T13:15:01.225Z,19.40
2022-09-09T13:17:05.524Z,19.30
2022-09-09T13:19:17.423Z,19.10
2022-09-09T13:21:19.838Z,19.00
2022-09-09T13:23:23.015Z,19.00
2022-09-09T13:25:29.805Z,19.00
2022-09-09T13:27:35.223Z,18.90
2022-09-09T13:29:38.234Z,18.90
2022-09-09T13:31:40.060Z,18.80
2022-09-09T13:33:41.722Z,18.80
2022-09-09T13:36:01.800Z,18.80
2022-09-09T13:38:10.559Z,18.80
2022-09-09T13:40:20.881Z,18.80
2022-09-09T13:42:31.257Z,18.70
2022-09-09T13:44:42.569Z,18.60
2022-09-09T13:46:45.665Z,18.80
2022-09-09T13:48:59.170Z,18.90
2022-09-09T13:51:08.498Z,19.00
2022-09-09T13:53:10.157Z,19.30
2022-09-09T13:55:11.796Z,19.50
2022-09-09T13:57:19.101Z,19.70
2022-09-09T13:59:21.119Z,19.90
2022-09-09T14:01:25.275Z,20.10
2022-09-09T14:03:31.126Z,20.50
2022-09-09T14:05:34.650Z,21.00
2022-09-09T14:07:36.346Z,21.50
2022-09-09T14:09:37.982Z,22.40
2022-09-09T14:11:39.749Z,22.40
2022-09-09T14:13:41.618Z,22.00
2022-09-09T14:15:43.329Z,21.70
2022-09-09T14:17:44.986Z,21.50
2022-09-09T14:19:46.945Z,21.40
2022-09-09T14:21:48.737Z,21.40
2022-09-09T14:23:50.441Z,21.50
2022-09-09T14:25:52.530Z,21.50
2022-09-09T14:27:54.155Z,21.40
2022-09-09T14:29:56.240Z,21.40
2022-09-09T14:31:57.915Z,21.40
2022-09-09T14:33:59.951Z,21.30
2022-09-09T14:36:03.702Z,21.30
2022-09-09T14:38:06.225Z,21.40
2022-09-09T14:40:08.487Z,21.40
2022-09-09T14:42:12.008Z,21.60
2022-09-09T14:44:13.798Z,21.80
2022-09-09T14:46:17.665Z,21.50
2022-09-09T14:48:20.284Z,21.30
2022-09-09T14:50:22.953Z,21.00
2022-09-09T14:52:24.650Z,20.90
2022-09-09T14:54:26.328Z,20.90
2022-09-09T14:56:30.608Z,21.20
2022-09-09T14:58:32.561Z,21.30
2022-09-09T15:00:34.291Z,21.30
2022-09-09T15:02:36.117Z,21.60
2022-09-09T15:04:37.977Z,22.00
2022-09-09T15:06:40.303Z,22.40
2022-09-09T15:08:44.200Z,22.60
2022-09-09T15:10:46.170Z,22.80
2022-09-09T15:12:47.885Z,22.80
2022-09-09T15:14:49.504Z,22.80
2022-09-09T15:16:51.127Z,22.80
2022-09-09T15:18:55.180Z,22.80
2022-09-09T15:20:57.301Z,22.50
2022-09-09T15:22:59.260Z,22.10
2022-09-09T15:25:00.872Z,21.80
2022-09-09T15:27:03.590Z,21.50
2022-09-09T15:29:05.363Z,21.20
2022-09-09T15:31:12.093Z,21.00
2022-09-09T15:33:13.760Z,21.40
2022-09-09T15:35:16.252Z,21.70
2022-09-09T15:37:18.045Z,21.80
2022-09-09T15:39:19.862Z,21.60
2022-09-09T15:41:23.585Z,21.20
2022-09-09T15:43:25.316Z,20.70
2022-09-09T15:45:27.850Z,20.30
2022-09-09T15:47:29.630Z,20.10
2022-09-09T15:49:31.442Z,20.00
2022-09-09T15:51:48.997Z,19.80
2022-09-09T15:53:56.397Z,19.80
2022-09-09T15:55:58.070Z,19.60
2022-09-09T15:57:59.690Z,19.40
2022-09-09T16:00:02.460Z,19.30
2022-09-09T16:02:06.200Z,19.10
2022-09-09T16:04:07.987Z,19.00
2022-09-09T16:06:10.477Z,18.90
2022-09-09T16:08:12.400Z,18.80
2022-09-09T16:10:14.621Z,18.70
2022-09-09T16:12:17.214Z,18.70
2022-09-09T16:14:18.901Z,18.60
2022-09-09T16:16:23.609Z,18.50
2022-09-09T16:18:25.281Z,18.40
2022-09-09T16:20:26.996Z,18.20
2022-09-09T16:22:28.750Z,18.20
2022-09-09T16:24:30.528Z,18.20
2022-09-09T16:26:34.725Z,18.20
2022-09-09T16:28:36.341Z,18.10
2022-09-09T16:30:38.209Z,18.20
2022-09-09T16:32:39.845Z,18.20
2022-09-09T16:34:41.531Z,18.30
2022-09-09T16:36:44.748Z,18.30
2022-09-09T16:38:46.653Z,18.30
2022-09-09T16:40:50.999Z,18.40
2022-09-09T16:42:52.905Z,18.40
2022-09-09T16:44:54.538Z,18.40
2022-09-09T16:47:00.415Z,18.40
2022-09-09T16:49:04.621Z,18.40
2022-09-09T16:51:15.193Z,18.40
2022-09-09T16:53:16.829Z,18.30
2022-09-09T16:55:20.023Z,18.20
2022-09-09T16:57:21.670Z,18.00
2022-09-09T16:59:24.534Z,17.80
2022-09-09T17:01:38.013Z,17.50
2022-09-09T17:03:39.698Z,17.30
2022-09-09T17:05:42.572Z,17.00
2022-09-09T17:07:44.966Z,16.80
2022-09-09T17:09:46.632Z,16.70
2022-09-09T17:11:51.392Z,16.60
2022-09-09T17:13:54.261Z,16.60
2022-09-09T17:15:58.659Z,16.50
2022-09-09T17:18:04.231Z,16.50
2022-09-09T17:20:08.005Z,16.50
2022-09-09T17:22:17.902Z,16.50
2022-09-09T17:24:19.751Z,16.40
2022-09-09T17:26:23.617Z,16.40
2022-09-09T17:28:28.338Z,16.30
2022-09-09T17:30:30.274Z,16.20
2022-09-09T17:32:31.873Z,16.00
2022-09-09T17:34:34.135Z,15.90
2022-09-09T17:36:37.661Z,15.80
2022-09-09T17:38:39.879Z,15.60
2022-09-09T17:40:41.746Z,15.50
2022-09-09T17:42:43.618Z,15.50
2022-09-09T17:44:45.243Z,15.40
2022-09-09T17:46:47.796Z,15.40
2022-09-09T17:48:53.726Z,15.30
2022-09-09T17:51:00.147Z,15.30
2022-09-09T17:53:03.334Z,15.30
2022-09-09T17:55:05.957Z,15.40
2022-09-09T17:57:07.675Z,15.40
2022-09-09T17:59:12.225Z,15.50
2022-09-09T18:01:22.252Z,15.50
2022-09-09T18:03:23.910Z,15.60
2022-09-09T18:05:25.671Z,15.60
2022-09-09T18:07:27.689Z,15.60
2022-09-09T18:09:29.436Z,15.60
2022-09-09T18:11:34.432Z,15.60
2022-09-09T18:13:36.420Z,15.60
2022-09-09T18:15:49.225Z,15.60
2022-09-09T18:17:51.609Z,15.70
2022-09-09T18:19:53.265Z,15.70
2022-09-09T18:21:57.509Z,15.70
2022-09-09T18:24:04.233Z,15.60
2022-09-09T18:26:15.539Z,15.60
2022-09-09T18:28:19.426Z,15.60
2022-09-09T18:30:22.956Z,15.60
2022-09-09T18:32:24.657Z,15.60
2022-09-09T18:34:28.914Z,15.60
2022-09-09T18:36:34.352Z,15.60
2022-09-09T18:38:37.227Z,15.60
2022-09-09T18:40:38.948Z,15.50
2022-09-09T18:42:40.876Z,15.50
2022-09-09T18:44:43.208Z,15.50
2022-09-09T18:46:45.273Z,15.40
2022-09-09T18:48:48.192Z,15.40
2022-09-09T18:50:49.944Z,15.40
2022-09-09T18:52:52.732Z,15.30
2022-09-09T18:54:54.416Z,15.30
2022-09-09T18:56:56.214Z,15.20
2022-09-09T18:59:02.762Z,15.20
2022-09-09T19:01:08.441Z,15.10
2022-09-09T19:03:10.150Z,15.10
2022-09-09T19:05:11.909Z,15.10
2022-09-09T19:07:13.686Z,15.20
2022-09-09T19:09:18.545Z,15.20
2022-09-09T19:11:25.405Z,15.30
2022-09-09T19:13:27.177Z,15.40
2022-09-09T19:15:29.695Z,15.50
2022-09-09T19:17:32.360Z,15.50
2022-09-09T19:19:35.149Z,15.60
2022-09-09T19:21:38.776Z,15.60
2022-09-09T19:23:44.167Z,15.70
2022-09-09T19:25:45.881Z,15.70
2022-09-09T19:27:47.551Z,15.70
2022-09-09T19:29:49.298Z,15.70
2022-09-09T19:32:29.707Z,15.60
2022-09-09T19:34:15.561Z,15.50
2022-09-09T19:36:19.009Z,15.40
2022-09-09T19:38:20.678Z,15.30
2022-09-09T19:40:22.969Z,15.20
2022-09-09T19:42:25.422Z,15.20
2022-09-09T19:44:27.169Z,15.10
2022-09-09T19:46:35.376Z,15.10
2022-09-09T19:48:39.217Z,15.20
2022-09-09T19:50:41.342Z,15.20
2022-09-09T19:52:43.061Z,15.20
2022-09-09T19:54:46.615Z,15.20
2022-09-09T19:56:48.364Z,15.20
2022-09-09T19:58:50.701Z,15.20
2022-09-09T20:00:53.914Z,15.30
2022-09-09T20:03:17.611Z,15.30
2022-09-09T20:05:17.273Z,15.30
2022-09-09T20:07:19.181Z,15.30
2022-09-09T20:09:22.055Z,15.30
2022-09-09T20:11:25.005Z,15.10
2022-09-09T20:13:28.337Z,15.00
2022-09-09T20:15:30.191Z,14.90
2022-09-09T20:17:32.041Z,14.80
2022-09-09T20:19:34.218Z,14.80
2022-09-09T20:21:46.555Z,14.70
2022-09-09T20:23:50.718Z,14.70
2022-09-09T20:25:52.407Z,14.70
2022-09-09T20:27:54.017Z,14.60
2022-09-09T20:29:55.751Z,14.60
2022-09-09T20:31:58.428Z,14.60
2022-09-09T20:34:00.084Z,14.80
2022-09-09T20:36:30.298Z,14.90
2022-09-09T20:38:35.298Z,15.00
2022-09-09T20:40:38.148Z,15.10
2022-09-09T20:42:40.037Z,15.10
2022-09-09T20:44:41.657Z,15.10
2022-09-09T20:46:48.271Z,15.10
2022-09-09T20:48:51.387Z,15.10
2022-09-09T20:50:53.999Z,15.10
2022-09-09T20:52:55.848Z,15.10
2022-09-09T20:54:57.674Z,15.10
2022-09-09T20:57:02.896Z,15.10
2022-09-09T20:59:06.044Z,15.10
2022-09-09T21:01:07.747Z,15.10
2022-09-09T21:03:09.658Z,15.10
2022-09-09T21:05:11.577Z,15.10
2022-09-09T21:07:13.562Z,15.00
2022-09-09T21:09:15.298Z,15.00
2022-09-09T21:11:17.562Z,15.00
2022-09-09T21:13:21.093Z,15.00
2022-09-09T21:15:24.377Z,14.90
2022-09-09T21:17:26.238Z,14.80
2022-09-09T21:19:29.089Z,14.80
2022-09-09T21:21:30.814Z,14.70
2022-09-09T21:23:32.712Z,14.70
2022-09-09T21:25:34.396Z,14.80
2022-09-09T21:27:36.214Z,14.70
2022-09-09T21:29:38.133Z,14.90
2022-09-09T21:31:39.905Z,14.90
2022-09-09T21:33:41.986Z,15.00
2022-09-09T21:35:44.171Z,15.00
2022-09-09T21:37:46.014Z,15.00
2022-09-09T21:39:48.008Z,15.00
2022-09-09T21:41:49.789Z,14.90
2022-09-09T21:43:54.889Z,14.80
2022-09-09T21:45:56.803Z,14.70
2022-09-09T21:47:58.652Z,14.70
2022-09-09T21:50:01.180Z,14.70
2022-09-09T21:52:03.546Z,14.60
2022-09-09T21:54:06.836Z,14.50
2022-09-09T21:56:12.244Z,14.40
2022-09-09T21:58:15.606Z,14.30
2022-09-09T22:00:18.061Z,14.20
2022-09-09T22:02:21.861Z,14.00
2022-09-09T22:04:24.001Z,14.00
2022-09-09T22:06:26.185Z,13.90
2022-09-09T22:08:29.646Z,13.90
2022-09-09T22:10:31.420Z,13.80
2022-09-09T22:12:34.313Z,13.70
2022-09-09T22:14:37.149Z,13.70
2022-09-09T22:16:39.892Z,13.70
2022-09-09T22:18:42.290Z,13.70
2022-09-09T22:20:45.221Z,13.70
2022-09-09T22:22:46.853Z,13.70
2022-09-09T22:24:48.755Z,13.70
2022-09-09T22:26:55.521Z,13.70
2022-09-09T22:28:58.050Z,13.70
2022-09-09T22:31:00.443Z,13.80
2022-09-09T22:33:02.782Z,13.90
2022-09-09T22:35:04.826Z,13.80
2022-09-09T22:37:07.342Z,13.80
2022-09-09T22:39:09.078Z,13.80
2022-09-09T22:41:10.792Z,13.70
2022-09-09T22:43:19.222Z,13.70
2022-09-09T22:45:21.692Z,13.80
2022-09-09T22:47:23.417Z,13.80
2022-09-09T22:49:25.404Z,13.80
2022-09-09T22:51:27.061Z,13.80
2022-09-09T22:53:28.725Z,13.80
2022-09-09T22:55:31.271Z,13.80
2022-09-09T22:57:32.890Z,13.70
2022-09-09T22:59:35.227Z,13.80
2022-09-09T23:01:37.047Z,13.70
2022-09-09T23:03:40.609Z,13.70
2022-09-09T23:05:42.758Z,13.70
2022-09-09T23:07:44.896Z,13.80
2022-09-09T23:09:47.848Z,13.90
2022-09-09T23:11:49.493Z,13.90
2022-09-09T23:13:53.240Z,13.90
2022-09-09T23:15:55.300Z,14.00
2022-09-09T23:17:56.986Z,14.00
2022-09-09T23:19:58.687Z,14.10
2022-09-09T23:22:00.561Z,14.20
2022-09-09T23:24:02.410Z,14.20
2022-09-09T23:26:09.432Z,14.20
2022-09-09T23:28:11.502Z,14.20
2022-09-09T23:30:13.625Z,14.20
2022-09-09T23:32:15.816Z,14.20
2022-09-09T23:34:18.058Z,14.00
2022-09-09T23:36:21.251Z,13.80
2022-09-09T23:38:22.926Z,13.50
2022-09-09T23:40:25.318Z,13.30
2022-09-09T23:42:27.175Z,13.20
2022-09-09T23:44:29.272Z,13.10
2022-09-09T23:46:32.912Z,12.90
2022-09-09T23:48:39.065Z,12.80
2022-09-09T23:50:42.098Z,12.80
2022-09-09T23:52:44.517Z,12.70
2022-09-09T23:54:46.805Z,12.60
2022-09-09T23:56:48.400Z,12.50
2022-09-09T23:58:51.474Z,12.50
